Thursday, February 22, 2018, 5:18 AM EST
Back to Local

KNUI, Knui Webster Field Annex

Location: Saint Inigoes, MD, United States Lat: 38.15
Local Time: 5:18 AM EST (10:18 GMT) Lon: -76.417
Time Zone: US/Eastern Elev: 19 ft

Show me the last for .
Show Decoded

2018-02-22 04:53 METAR KNUI 220953Z AUTO 02003KT 8SM BKN019 BKN032 OVC060 16/14 A3039 RMK AO2
                 SLP292 T01560144 =
2018-02-22 04:33 METAR KNUI 220933Z AUTO 04007KT 8SM BKN019 OVC045 17/16 A3039 RMK AO2 T01720156
                 =
2018-02-22 03:53 METAR KNUI 220853Z AUTO 00000KT 8SM BKN047 OVC060 16/14 A3038 RMK AO2 SLP287
                 T01610144 50003 =
2018-02-22 02:53 METAR KNUI 220753Z AUTO 00000KT 9SM FEW048 OVC060 18/16 A3038 RMK AO2 SLP287
                 T01780156 =
2018-02-22 01:53 METAR KNUI 220653Z AUTO 00000KT 9SM OVC048 17/16 A3038 RMK AO2 SLP286 T01720156
                 =
2018-02-22 00:53 METAR KNUI 220553Z AUTO 00000KT 9SM CLR 18/16 A3037 RMK AO2 SLP284 T01780156
                 10217 20172 53004 =
2018-02-21 23:53 METAR KNUI 220453Z AUTO 19007KT 9SM CLR 19/16 A3036 RMK AO2 SLP281 T01890161
                 402440150 =
2018-02-21 22:53 METAR KNUI 220353Z AUTO 21006KT 9SM CLR 19/16 A3036 RMK AO2 SLP281 T01940161 =
2018-02-21 21:53 METAR KNUI 220253Z AUTO 21008KT 9SM CLR 19/16 A3036 RMK AO2 SLP280 T01940156
                 51009 =
2018-02-21 20:53 METAR KNUI 220153Z AUTO 19009KT 10SM CLR 21/16 A3035 RMK AO2 SLP277 T02060161 =
2018-02-21 19:53 METAR KNUI 220053Z AUTO 20010KT 10SM CLR 21/16 A3034 RMK AO2 SLP275 T02110161 =
2018-02-21 18:53 METAR KNUI 212353Z AUTO 18008KT 10SM CLR 22/16 A3033 RMK AO2 SLP270 T02170161
                 10244 20217 53012 =
2018-02-21 17:53 METAR KNUI 212253Z AUTO 19011KT 9SM CLR 22/16 A3031 RMK AO2 SLP264 T02220156 =
2018-02-21 16:53 METAR KNUI 212153Z AUTO 19012KT 9SM CLR 23/16 A3029 RMK AO2 SLP258 T02280161 =
2018-02-21 15:53 METAR KNUI 212053Z AUTO 19011KT 9SM CLR 24/16 A3030 RMK AO2 SLP258 T02390161
                 56015 =
2018-02-21 14:53 METAR KNUI 211953Z AUTO 21013KT 9SM CLR 24/17 A3031 RMK AO2 SLP262 T02440167 =
2018-02-21 13:53 METAR KNUI 211853Z AUTO 21013KT 9SM CLR 23/16 A3032 RMK AO2 SLP266 T02330161 =
2018-02-21 12:53 METAR KNUI 211753Z AUTO 21013KT 10SM CLR 22/16 A3034 RMK AO2 SLP273 T02220161
                 10228 20156 58022 =
2018-02-21 12:01 METAR KNUI 211701Z AUTO 20012KT 9SM SCT028 22/16 A3037 RMK AO2 T02170161 =
2018-02-21 11:53 METAR KNUI 211653Z AUTO 22011KT 9SM BKN027 22/16 A3038 RMK AO2 SLP287 T02170161
                 =
2018-02-21 10:53 METAR KNUI 211553Z AUTO 9SM OVC023 20/16 A3040 RMK AO2 SLP293 T02000161 $ =
2018-02-21 09:53 METAR KNUI 211453Z AUTO 8SM OVC017 19/16 A3041 RMK AO2 SLP295 T01890161 51011 $
                 =
2018-02-21 09:44 METAR KNUI 211444Z AUTO 7SM OVC017 18/16 A3040 RMK AO2 T01830156 $ =
2018-02-21 08:53 METAR KNUI 211353Z AUTO 7SM OVC012 17/15 A3041 RMK AO2 SLP295 T01670150 $ =
2018-02-21 07:53 METAR KNUI 211253Z AUTO 21003KT 6SM BR OVC012 17/16 A3039 RMK AO2 SLP291
                 T01670156 =
2018-02-21 06:53 METAR KNUI 211153Z AUTO 20009KT 6SM BR BKN012 17/16 A3037 RMK AO2 SLP285
                 T01670156 10172 20156 51006 =
2018-02-21 05:53 METAR KNUI 211053Z AUTO 20010KT 7SM OVC012 17/16 A3036 RMK AO2 SLP281 T01720156
                 =

Support USWX by starting your Amazon purchase here.